createdAt,value
2019-06-07T00:04:03.881Z,97491.28
2019-06-07T00:09:09.959Z,97489.62
2019-06-07T00:14:16.039Z,97492.48
2019-06-07T00:19:19.013Z,97495.36
2019-06-07T00:24:22.485Z,97495.94
2019-06-07T00:29:25.826Z,97489.59
2019-06-07T00:34:29.189Z,97497.19
2019-06-07T00:39:32.559Z,97488.31
2019-06-07T00:44:35.886Z,97493.44
2019-06-07T00:49:41.373Z,97484.66
2019-06-07T00:54:44.211Z,97482.45
2019-06-07T00:59:47.604Z,97487.52
2019-06-07T01:04:50.975Z,97487.06
2019-06-07T01:09:54.264Z,97487.65
2019-06-07T01:14:57.577Z,97467.11
2019-06-07T01:20:00.989Z,97473.36
2019-06-07T01:25:06.332Z,97476.52
2019-06-07T01:30:14.335Z,97479.94
2019-06-07T01:35:20.271Z,97480.88
2019-06-07T01:40:28.847Z,97461.56
2019-06-07T01:45:30.892Z,97455.64
2019-06-07T01:50:32.899Z,97449.03
2019-06-07T01:55:36.203Z,97445.31
2019-06-07T02:00:39.511Z,97451.09
2019-06-07T02:05:42.812Z,97444.27
2019-06-07T02:10:46.110Z,97447.55
2019-06-07T02:15:49.403Z,97451.36
2019-06-07T02:20:52.701Z,97454.45
2019-06-07T02:25:55.983Z,97456.74
2019-06-07T02:31:00.586Z,97453.17
2019-06-07T02:36:04.108Z,97445.69
2019-06-07T02:41:07.572Z,97446.81
2019-06-07T02:46:27.741Z,97439.31
2019-06-07T02:51:17.627Z,97426.13
2019-06-07T02:56:40.390Z,97421.18
2019-06-07T03:01:28.562Z,97418.47
2019-06-07T03:06:36.961Z,97437.58
2019-06-07T03:11:39.062Z,97435.13
2019-06-07T03:16:48.640Z,97442.75
2019-06-07T03:21:53.432Z,97447.70
2019-06-07T03:32:01.853Z,97442.27
2019-06-07T03:37:05.234Z,97447.70
2019-06-07T03:42:08.712Z,97443.54
2019-06-07T03:47:11.980Z,97443.91
2019-06-07T03:52:15.303Z,97446.95
2019-06-07T03:57:18.638Z,97454.87
2019-06-07T04:02:21.958Z,97458.86
2019-06-07T04:07:25.256Z,97460.11
2019-06-07T04:12:28.613Z,97475.24
2019-06-07T04:17:34.654Z,97466.16
2019-06-07T04:22:40.480Z,97468.27
2019-06-07T04:27:44.185Z,97463.59
2019-06-07T04:32:47.478Z,97465.50
2019-06-07T04:37:50.881Z,97459.22
2019-06-07T04:42:54.245Z,97463.67
2019-06-07T04:47:58.201Z,97468.42
2019-06-07T04:53:01.538Z,97464.27
2019-06-07T04:58:05.160Z,97463.87
2019-06-07T05:03:08.482Z,97466.09
2019-06-07T05:08:27.743Z,97463.42
2019-06-07T05:13:16.793Z,97455.59
2019-06-07T05:18:20.118Z,97444.48
2019-06-07T05:24:04.838Z,97442.43
2019-06-07T05:28:28.423Z,97445.66
2019-06-07T05:33:35.094Z,97437.73
2019-06-07T05:38:40.445Z,97446.14
2019-06-07T05:43:49.486Z,97450.55
2019-06-07T05:48:46.800Z,97446.97
2019-06-07T05:53:50.147Z,97432.70
2019-06-07T05:58:53.485Z,97431.23
2019-06-07T06:03:56.813Z,97420.88
2019-06-07T06:09:13.347Z,97414.19
2019-06-07T06:14:07.934Z,97414.48
2019-06-07T06:19:10.210Z,97403.84
2019-06-07T06:24:13.519Z,97403.98
2019-06-07T06:29:16.806Z,97389.53
2019-06-07T06:34:20.137Z,97405.17
2019-06-07T06:39:23.420Z,97403.41
2019-06-07T06:44:26.777Z,97408.87
2019-06-07T06:49:30.099Z,97408.80
2019-06-07T06:54:40.808Z,97407.48
2019-06-07T06:59:40.853Z,97399.16
2019-06-07T07:04:43.996Z,97397.19
2019-06-07T07:09:52.327Z,97399.20
2019-06-07T07:14:56.073Z,97388.56
2019-06-07T07:19:59.149Z,97399.14
2019-06-07T07:25:02.437Z,97387.14
2019-06-07T07:30:36.243Z,97386.14
2019-06-07T07:35:14.596Z,97377.48
2019-06-07T07:45:22.974Z,97356.14
2019-06-07T07:50:26.265Z,97358.49
2019-06-07T07:55:29.619Z,97353.48
2019-06-07T08:00:52.968Z,97338.00
2019-06-07T08:05:42.893Z,97337.97
2019-06-07T08:10:43.581Z,97324.71
2019-06-07T08:15:48.287Z,97321.91
2019-06-07T08:21:08.811Z,97320.27
2019-06-07T08:26:00.905Z,97317.87
2019-06-07T08:31:07.058Z,97315.77
2019-06-07T08:36:19.401Z,97310.43
2019-06-07T08:41:13.026Z,97297.75
2019-06-07T08:46:16.334Z,97297.58
2019-06-07T08:51:19.650Z,97287.95
2019-06-07T08:56:23.017Z,97281.95
2019-06-07T09:01:26.326Z,97271.33
2019-06-07T09:11:34.744Z,97264.53
2019-06-07T09:16:38.104Z,97259.07
2019-06-07T09:21:41.469Z,97250.96
2019-06-07T09:26:44.785Z,97258.20
2019-06-07T09:31:53.378Z,97259.56
2019-06-07T09:36:53.781Z,97260.72
2019-06-07T09:41:58.701Z,97249.09
2019-06-07T09:47:22.408Z,97234.56
2019-06-07T09:52:10.743Z,97233.23
2019-06-07T09:57:17.460Z,97228.03
2019-06-07T10:02:17.465Z,97213.92
2019-06-07T10:07:31.313Z,97204.32
2019-06-07T10:12:25.985Z,97195.55
2019-06-07T10:17:29.315Z,97190.66
2019-06-07T10:22:32.603Z,97176.98
2019-06-07T10:27:35.971Z,97178.67
2019-06-07T10:32:39.468Z,97168.52
2019-06-07T10:37:42.753Z,97169.92
2019-06-07T10:42:46.043Z,97176.19
2019-06-07T10:47:49.371Z,97166.70
2019-06-07T10:52:52.655Z,97159.30
2019-06-07T10:57:57.670Z,97145.13
2019-06-07T11:03:00.968Z,97145.88
2019-06-07T11:08:04.315Z,97136.90
2019-06-07T11:13:08.251Z,97140.77
2019-06-07T11:18:12.531Z,97130.89
2019-06-07T11:23:15.976Z,97131.20
2019-06-07T11:28:19.266Z,97125.49
2019-06-07T11:33:22.555Z,97118.49
2019-06-07T11:38:25.859Z,97111.80
2019-06-07T11:43:29.191Z,97122.23
2019-06-07T11:48:33.420Z,97110.20
2019-06-07T11:53:38.552Z,97092.23
2019-06-07T11:58:41.844Z,97092.23
2019-06-07T12:03:45.134Z,97098.63
2019-06-07T12:08:48.426Z,97092.86
2019-06-07T12:13:51.711Z,97087.67
2019-06-07T12:18:55.038Z,97082.80
2019-06-07T12:23:58.415Z,97075.55
2019-06-07T12:29:01.748Z,97063.48
2019-06-07T12:34:05.106Z,97061.06
2019-06-07T12:39:08.465Z,97060.95
2019-06-07T12:44:12.594Z,97054.44
2019-06-07T12:49:17.032Z,97044.08
2019-06-07T12:54:21.610Z,97032.69
2019-06-07T12:59:25.029Z,97028.56
2019-06-07T13:04:28.330Z,97019.57
2019-06-07T13:09:35.988Z,97016.42
2019-06-07T13:14:36.694Z,97005.39
2019-06-07T13:19:39.970Z,97000.86
2019-06-07T13:24:43.342Z,97001.13
2019-06-07T13:29:46.774Z,96996.51
2019-06-07T13:34:51.733Z,96991.20
2019-06-07T13:39:57.811Z,96989.67
2019-06-07T13:45:01.106Z,96989.47
2019-06-07T13:50:07.881Z,96984.75
2019-06-07T13:55:11.514Z,96977.45
2019-06-07T14:00:15.387Z,96957.96
2019-06-07T14:05:18.909Z,96957.96
2019-06-07T14:10:23.538Z,96957.28
2019-06-07T14:15:28.189Z,96963.92
2019-06-07T14:20:34.635Z,96955.53
2019-06-07T14:25:37.056Z,96956.56
2019-06-07T14:30:40.379Z,96955.60
2019-06-07T14:35:43.717Z,96950.59
2019-06-07T14:40:47.093Z,96939.98
2019-06-07T14:45:50.410Z,96932.38
2019-06-07T14:50:53.725Z,96932.38
2019-06-07T14:55:57.017Z,96930.13
2019-06-07T15:01:00.315Z,96929.08
2019-06-07T15:06:03.606Z,96921.81
2019-06-07T15:11:06.909Z,96915.17
2019-06-07T15:16:10.242Z,96922.84
2019-06-07T15:21:13.710Z,96918.84
2019-06-07T15:26:17.051Z,96911.56
2019-06-07T15:31:20.415Z,96899.75
2019-06-07T15:36:23.762Z,96897.28
2019-06-07T15:41:27.141Z,96889.50
2019-06-07T15:46:31.495Z,96891.80
2019-06-07T15:51:36.559Z,96890.57
2019-06-07T15:56:41.304Z,96886.92
2019-06-07T16:01:44.764Z,96893.55
2019-06-07T16:06:48.166Z,96899.41
2019-06-07T16:11:51.497Z,96899.24
2019-06-07T16:16:54.816Z,96896.00
2019-06-07T16:21:58.117Z,96892.59
2019-06-07T16:27:01.429Z,96883.05
2019-06-07T16:32:04.870Z,96881.26
2019-06-07T16:37:08.230Z,96873.56
2019-06-07T16:42:11.534Z,96865.54
2019-06-07T16:47:14.829Z,96866.22
2019-06-07T16:52:18.151Z,96854.03
2019-06-07T16:57:21.506Z,96852.93
2019-06-07T17:02:24.901Z,96849.08
2019-06-07T17:07:28.209Z,96850.16
2019-06-07T17:12:31.565Z,96844.70
2019-06-07T17:17:34.898Z,96837.27
2019-06-07T17:22:39.070Z,96834.00
2019-06-07T17:27:43.892Z,96854.28
2019-06-07T17:32:56.901Z,96842.27
2019-06-07T17:37:52.367Z,96839.20
2019-06-07T17:42:55.689Z,96840.22
2019-06-07T17:47:59.013Z,96838.06
2019-06-07T17:53:02.499Z,96850.13
2019-06-07T17:58:05.903Z,96851.39
2019-06-07T18:03:09.209Z,96852.88
2019-06-07T18:08:13.098Z,96847.63
2019-06-07T18:13:16.421Z,96854.09
2019-06-07T18:18:19.714Z,96851.31
2019-06-07T18:23:23.036Z,96846.42
2019-06-07T18:28:26.376Z,96858.73
2019-06-07T18:33:29.668Z,96854.95
2019-06-07T18:38:32.962Z,96855.30
2019-06-07T18:43:36.270Z,96855.00
2019-06-07T18:48:39.594Z,96869.79
2019-06-07T18:53:42.891Z,96877.81
2019-06-07T18:58:47.128Z,96883.02
2019-06-07T19:03:52.019Z,96891.23
2019-06-07T19:08:56.970Z,96896.90
2019-06-07T19:14:00.450Z,96905.31
2019-06-07T19:19:03.798Z,96909.41
2019-06-07T19:24:07.151Z,96920.29
2019-06-07T19:29:10.456Z,96926.39
2019-06-07T19:34:13.835Z,96931.91
2019-06-07T19:39:17.112Z,96944.28
2019-06-07T19:44:20.425Z,96942.40
2019-06-07T19:49:23.749Z,96936.67
2019-06-07T19:59:29.453Z,96947.91
2019-06-07T20:04:32.787Z,96954.22
2019-06-07T20:09:36.074Z,96969.50
2019-06-07T20:14:39.393Z,96965.38
2019-06-07T20:19:42.707Z,96971.95
2019-06-07T20:24:46.014Z,96981.91
2019-06-07T20:29:49.309Z,97000.95
2019-06-07T20:34:52.607Z,97004.62
2019-06-07T20:39:57.031Z,97018.92
2019-06-07T20:45:01.993Z,97023.36
2019-06-07T20:50:08.754Z,97038.13
2019-06-07T20:55:12.808Z,97048.39
2019-06-07T21:00:21.745Z,97061.27
2019-06-07T21:05:21.389Z,97051.81
2019-06-07T21:10:24.742Z,97054.70
2019-06-07T21:15:28.030Z,97068.48
2019-06-07T21:20:33.951Z,97079.57
2019-06-07T21:25:36.368Z,97126.73
2019-06-07T21:30:39.665Z,97238.59
2019-06-07T21:35:42.973Z,97286.25
2019-06-07T21:40:46.318Z,97321.50
2019-06-07T21:46:04.435Z,97324.16
2019-06-07T21:50:54.709Z,97329.69
2019-06-07T21:55:58.010Z,97389.78
2019-06-07T22:01:06.284Z,97409.94
2019-06-07T22:06:09.779Z,97442.38
2019-06-07T22:11:14.147Z,97485.84
2019-06-07T22:16:28.622Z,97494.56
2019-06-07T22:21:24.223Z,97496.01
2019-06-07T22:26:27.646Z,97526.92
2019-06-07T22:31:31.322Z,97532.73
2019-06-07T22:36:34.629Z,97540.20
2019-06-07T22:41:37.973Z,97550.15
2019-06-07T22:46:41.384Z,97549.42
2019-06-07T22:51:44.656Z,97566.84
2019-06-07T22:56:52.158Z,97588.78
2019-06-07T23:01:55.390Z,97596.24
2019-06-07T23:06:58.736Z,97612.16
2019-06-07T23:12:02.042Z,97631.71
2019-06-07T23:17:05.438Z,97632.66
2019-06-07T23:22:09.912Z,97644.89
2019-06-07T23:27:14.446Z,97656.05
2019-06-07T23:32:20.194Z,97664.31
2019-06-07T23:37:25.488Z,97668.99
2019-06-07T23:42:29.081Z,97669.83
2019-06-07T23:47:32.348Z,97674.27
2019-06-07T23:52:35.765Z,97677.48
2019-06-07T23:57:41.732Z,97689.27
